Terminal Aerodrome Forecast
Issued by NWS Charleston, WV

Current Version | Previous Version | Graphics & Text | Print | Product List | Glossary On
Versions: 1 2 3 4 5 6 7 8 9 10 11 12 13 14 15 16 17 18 19 20 21 22 23 24 25 26 27 28 29 30 31 32 33 34 35
000
FTUS41 KRLX 271700
TAFCRW
TAF
KCRW 271738Z 2718/2818 20012G18KT 4SM +TSRA BR BKN045CB
     FM272300 23009KT 6SM BR VCTS BKN045CB
     FM280300 25007KT P6SM BKN040=

USA.gov is the U.S. government's official web portal to all federal, state and local government web resources and services.